Powers, OR (97466)

1:40 AM PST on February 11, 2016 (GMT -0800)
Middle Earth | | Change Station
CLOSE
Current Station
Personal Weather Station
Location: Powers, OR
Elevation: 253 ft
Nearby Weather Stations

Elev 253 ft 42.89 °N, 124.07 °W | Updated 7 minutes ago

Mostly Cloudy
Mostly Cloudy
48.4 °F
Feels Like 48 °F
N
0.0
Wind Variable Wind from West

Today
High -- | Low -- °F
--% Chance of Precip.
Yesterday
High -- | Low -- °F
Precip. -- in
Pressure 30.13 in
Visibility 10.0 miles
Clouds Scattered Clouds 9000 ft
Windchill 48 °F
Dew Point 47 °F
Humidity 94%
Rainfall 0.00 in
Snow Depth Not available.
7:19 AM 5:42 PM
Waxing Crescent, 10% visible
METAR KOTH 110935Z 15006KT 10SM SCT090 13/11 A3013 RMK AO1
Pressure 30.13 in
Visibility 10.0 miles
Clouds Scattered Clouds 9000 ft
Windchill 48 °F
Dew Point 47 °F
Humidity 94%
Rainfall 0.00 in
Snow Depth Not available.
7:19 AM 5:42 PM
Waxing Crescent, 10% visible
METAR KOTH 110935Z 15006KT 10SM SCT090 13/11 A3013 RMK AO1

10-Day Weather Forecast

Almanac

Astronomy

Feb. 11, 2016 Rise Set
Actual Time
Civil Twilight
Nautical Twilight
Astronomical Twilight
Moon
Length of Visible Light
Length of Day
Tomorrow will be .
, % of the Moon is Illuminated

Today's Extremes

State Highs State Lows

Community

WunderPhotos

Upload Photos

1,892,030 photos uploaded!

WunderBlog® & News

Nearby

Air Quality

  Air Quality AQ Index Pollutant
Not available.

Snow Depth

Station Depth Elevation

Earthquake Activity

City Distance Mag. Time & Date
Minimum magnitude displayed is 2.5.

Coastal Water Temperatures

Place Temperature

Stations

Nearby Weather Stations

Station Location Temp. Windchill Dew Point Humidity Wind Precip. Elev Updated Type
                   

Watches & Warnings

There are currently no watches in effect.